createdAt,value
2017-03-27T00:00:55.183Z,101171
2017-03-27T00:01:55.276Z,101170
2017-03-27T00:02:55.379Z,101167
2017-03-27T00:03:56.129Z,101168
2017-03-27T00:04:56.027Z,101172
2017-03-27T00:05:55.998Z,101173
2017-03-27T00:06:56.121Z,101175
2017-03-27T00:07:56.239Z,101174
2017-03-27T00:08:56.245Z,101174
2017-03-27T00:09:56.454Z,101167
2017-03-27T00:10:55.835Z,101178
2017-03-27T00:11:55.846Z,101178
2017-03-27T00:12:55.919Z,101176
2017-03-27T00:13:55.998Z,101172
2017-03-27T00:14:56.620Z,101173
2017-03-27T00:15:56.386Z,101174
2017-03-27T00:16:56.285Z,101173
2017-03-27T00:17:56.842Z,101172
2017-03-27T00:18:56.371Z,101171
2017-03-27T00:19:56.363Z,101174
2017-03-27T00:20:56.942Z,101171
2017-03-27T00:21:57.152Z,101165
2017-03-27T00:22:56.497Z,101174
2017-03-27T00:23:57.124Z,101168
2017-03-27T00:24:56.665Z,101172
2017-03-27T00:25:56.776Z,101167
2017-03-27T00:26:57.319Z,101162
2017-03-27T00:27:56.920Z,101164
2017-03-27T00:28:57.343Z,101165
2017-03-27T00:29:57.455Z,101161
2017-03-27T00:30:56.931Z,101165
2017-03-27T00:31:57.546Z,101163
2017-03-27T00:32:57.576Z,101163
2017-03-27T00:33:57.406Z,101161
2017-03-27T00:34:57.217Z,101160
2017-03-27T00:35:57.799Z,101164
2017-03-27T00:36:57.846Z,101160
2017-03-27T00:37:57.406Z,101161
2017-03-27T00:38:58.020Z,101163
2017-03-27T00:39:58.193Z,101162
2017-03-27T00:40:58.124Z,101166
2017-03-27T00:41:57.571Z,101164
2017-03-27T00:42:57.670Z,101158
2017-03-27T00:43:57.683Z,101156
2017-03-27T00:44:57.795Z,101156
2017-03-27T00:45:57.924Z,101158
2017-03-27T00:46:58.385Z,101160
2017-03-27T00:47:58.487Z,101162
2017-03-27T00:48:58.602Z,101152
2017-03-27T00:49:58.150Z,101157
2017-03-27T00:50:58.242Z,101161
2017-03-27T00:51:58.924Z,101155
2017-03-27T00:52:58.782Z,101157
2017-03-27T00:53:58.365Z,101162
2017-03-27T00:54:58.939Z,101165
2017-03-27T00:55:58.502Z,101167
2017-03-27T00:56:59.058Z,101163
2017-03-27T00:57:59.260Z,101166
2017-03-27T00:58:58.661Z,101163
2017-03-27T00:59:58.633Z,101165
2017-03-27T01:00:58.685Z,101161
2017-03-27T01:01:59.275Z,101166
2017-03-27T01:02:59.272Z,101163
2017-03-27T01:03:59.504Z,101165
2017-03-27T01:04:58.890Z,101162
2017-03-27T01:05:58.905Z,101164
2017-03-27T01:06:59.480Z,101160
2017-03-27T01:07:59.100Z,101163
2017-03-27T01:08:59.658Z,101165
2017-03-27T01:09:59.856Z,101166
2017-03-27T01:10:59.167Z,101162
2017-03-27T01:11:59.768Z,101166
2017-03-27T01:12:59.204Z,101164
2017-03-27T01:13:59.833Z,101163
2017-03-27T01:14:59.937Z,101165
2017-03-27T01:15:59.735Z,101166
2017-03-27T01:17:00.078Z,101160
2017-03-27T01:18:00.153Z,101154
2017-03-27T01:19:00.165Z,101165
2017-03-27T01:20:00.206Z,101154
2017-03-27T01:20:59.760Z,101166
2017-03-27T01:21:59.959Z,101159
2017-03-27T01:22:59.831Z,101163
2017-03-27T01:23:59.877Z,101163
2017-03-27T01:24:59.878Z,101165
2017-03-27T01:25:59.923Z,101166
2017-03-27T01:27:00.009Z,101161
2017-03-27T01:28:00.224Z,101162
2017-03-27T01:29:00.167Z,101164
2017-03-27T01:30:00.236Z,101163
2017-03-27T01:31:00.195Z,101157
2017-03-27T01:32:00.266Z,101153
2017-03-27T01:33:00.829Z,101161
2017-03-27T01:34:01.092Z,101168
2017-03-27T01:35:00.399Z,101167
2017-03-27T01:36:00.465Z,101164
2017-03-27T01:37:01.037Z,101165
2017-03-27T01:38:00.572Z,101164
2017-03-27T01:39:01.160Z,101166
2017-03-27T01:40:01.557Z,101164
2017-03-27T01:41:01.347Z,101164
2017-03-27T01:42:01.335Z,101166
2017-03-27T01:43:01.428Z,101163
2017-03-27T01:44:00.903Z,101163
2017-03-27T01:45:01.433Z,101159
2017-03-27T01:46:01.140Z,101163
2017-03-27T01:47:00.997Z,101161
2017-03-27T01:48:01.046Z,101161
2017-03-27T01:49:01.177Z,101162
2017-03-27T01:50:01.700Z,101160
2017-03-27T01:51:01.800Z,101164
2017-03-27T01:52:01.490Z,101164
2017-03-27T01:53:01.890Z,101159
2017-03-27T01:54:01.450Z,101164
2017-03-27T01:55:01.513Z,101153
2017-03-27T01:56:02.077Z,101154
2017-03-27T01:57:01.559Z,101160
2017-03-27T01:58:01.736Z,101165
2017-03-27T01:59:02.245Z,101164
2017-03-27T02:00:01.673Z,101158
2017-03-27T02:01:01.708Z,101163
2017-03-27T02:02:02.336Z,101160
2017-03-27T02:03:01.789Z,101159
2017-03-27T02:04:02.530Z,101159
2017-03-27T02:05:02.464Z,101162
2017-03-27T02:06:02.477Z,101154
2017-03-27T02:07:02.534Z,101158
2017-03-27T02:08:02.622Z,101159
2017-03-27T02:09:02.614Z,101157
2017-03-27T02:10:02.803Z,101155
2017-03-27T02:11:02.202Z,101151
2017-03-27T02:12:02.287Z,101149
2017-03-27T02:13:02.844Z,101153
2017-03-27T02:14:02.850Z,101155
2017-03-27T02:15:02.864Z,101145
2017-03-27T02:16:02.537Z,101150
2017-03-27T02:17:02.418Z,101150
2017-03-27T02:18:02.540Z,101151
2017-03-27T02:19:03.046Z,101150
2017-03-27T02:20:02.586Z,101144
2017-03-27T02:21:03.100Z,101145
2017-03-27T02:22:02.788Z,101145
2017-03-27T02:23:02.706Z,101142
2017-03-27T02:24:02.725Z,101142
2017-03-27T02:25:02.748Z,101143
2017-03-27T02:26:02.705Z,101140
2017-03-27T02:27:02.739Z,101138
2017-03-27T02:28:03.508Z,101133
2017-03-27T02:29:02.895Z,101136
2017-03-27T02:30:03.400Z,101127
2017-03-27T02:31:03.435Z,101136
2017-03-27T02:32:03.541Z,101137
2017-03-27T02:33:03.628Z,101130
2017-03-27T02:34:03.839Z,101120
2017-03-27T02:35:03.721Z,101127
2017-03-27T02:36:03.750Z,101131
2017-03-27T02:37:03.231Z,101128
2017-03-27T02:38:03.798Z,101125
2017-03-27T02:39:03.329Z,101128
2017-03-27T02:40:03.545Z,101115
2017-03-27T02:41:03.431Z,101122
2017-03-27T02:42:04.043Z,101123
2017-03-27T02:43:03.619Z,101124
2017-03-27T02:44:03.625Z,101117
2017-03-27T02:45:04.270Z,101123
2017-03-27T02:46:04.628Z,101125
2017-03-27T02:47:03.845Z,101112
2017-03-27T02:48:03.913Z,101122
2017-03-27T02:49:03.952Z,101117
2017-03-27T02:50:04.584Z,101123
2017-03-27T02:51:04.018Z,101119
2017-03-27T02:52:04.262Z,101121
2017-03-27T02:53:04.668Z,101122
2017-03-27T02:54:04.796Z,101122
2017-03-27T02:55:04.752Z,101120
2017-03-27T02:56:04.847Z,101112
2017-03-27T02:57:04.886Z,101117
2017-03-27T02:58:04.501Z,101108
2017-03-27T02:59:04.967Z,101118
2017-03-27T03:00:04.432Z,101113
2017-03-27T03:01:04.540Z,101119
2017-03-27T03:02:04.540Z,101109
2017-03-27T03:03:04.630Z,101114
2017-03-27T03:04:05.465Z,101114
2017-03-27T03:05:04.815Z,101113
2017-03-27T03:06:05.452Z,101105
2017-03-27T03:07:04.980Z,101115
2017-03-27T03:08:05.070Z,101110
2017-03-27T03:09:05.072Z,101121
2017-03-27T03:10:05.845Z,101116
2017-03-27T03:11:05.208Z,101116
2017-03-27T03:12:05.194Z,101118
2017-03-27T03:13:05.784Z,101120
2017-03-27T03:14:05.265Z,101118
2017-03-27T03:15:05.302Z,101113
2017-03-27T03:16:06.077Z,101117
2017-03-27T03:17:05.927Z,101120
2017-03-27T03:18:06.001Z,101123
2017-03-27T03:19:06.129Z,101121
2017-03-27T03:20:06.124Z,101124
2017-03-27T03:21:06.219Z,101122
2017-03-27T03:22:05.936Z,101125
2017-03-27T03:23:06.351Z,101127
2017-03-27T03:24:06.386Z,101125
2017-03-27T03:25:06.383Z,101128
2017-03-27T03:26:06.494Z,101119
2017-03-27T03:27:06.544Z,101127
2017-03-27T03:28:06.806Z,101130
2017-03-27T03:29:06.120Z,101126
2017-03-27T03:30:06.177Z,101124
2017-03-27T03:31:06.792Z,101130
2017-03-27T03:32:06.839Z,101121
2017-03-27T03:33:06.861Z,101128
2017-03-27T03:34:07.059Z,101120
2017-03-27T03:35:06.939Z,101126
2017-03-27T03:36:07.045Z,101131
2017-03-27T03:37:06.610Z,101126
2017-03-27T03:38:06.616Z,101137
2017-03-27T03:39:06.706Z,101132
2017-03-27T03:40:06.837Z,101137
2017-03-27T03:41:07.268Z,101134
2017-03-27T03:42:07.302Z,101135
2017-03-27T03:43:06.871Z,101138
2017-03-27T03:44:07.008Z,101136
2017-03-27T03:45:07.577Z,101135
2017-03-27T03:46:07.634Z,101138
2017-03-27T03:47:07.747Z,101139
2017-03-27T03:48:07.766Z,101141
2017-03-27T03:49:07.253Z,101142
2017-03-27T03:50:07.288Z,101144
2017-03-27T03:51:07.348Z,101142
2017-03-27T03:52:07.883Z,101143
2017-03-27T03:53:07.431Z,101144
2017-03-27T03:54:07.562Z,101142
2017-03-27T03:55:07.573Z,101136
2017-03-27T03:56:07.606Z,101148
2017-03-27T03:57:08.165Z,101139
2017-03-27T03:58:07.636Z,101150
2017-03-27T03:59:08.185Z,101143
2017-03-27T04:00:08.268Z,101149
2017-03-27T04:01:08.294Z,101139
2017-03-27T04:02:08.273Z,101148
2017-03-27T04:03:07.757Z,101145
2017-03-27T04:04:07.792Z,101149
2017-03-27T04:05:07.861Z,101152
2017-03-27T04:06:07.901Z,101154
2017-03-27T04:07:08.001Z,101160
2017-03-27T04:08:08.617Z,101160
2017-03-27T04:09:08.147Z,101160
2017-03-27T04:10:08.680Z,101163
2017-03-27T04:11:08.218Z,101161
2017-03-27T04:12:08.237Z,101156
2017-03-27T04:13:08.929Z,101165
2017-03-27T04:14:08.464Z,101161
2017-03-27T04:15:09.035Z,101163
2017-03-27T04:16:08.524Z,101161
2017-03-27T04:17:09.187Z,101160
2017-03-27T04:18:08.708Z,101158
2017-03-27T04:19:08.776Z,101163
2017-03-27T04:20:09.403Z,101156
2017-03-27T04:21:09.369Z,101164
2017-03-27T04:22:09.636Z,101160
2017-03-27T04:23:09.534Z,101163
2017-03-27T04:24:09.065Z,101162
2017-03-27T04:25:09.746Z,101163
2017-03-27T04:26:09.710Z,101162
2017-03-27T04:27:09.228Z,101166
2017-03-27T04:28:10.045Z,101156
2017-03-27T04:29:09.946Z,101163
2017-03-27T04:30:09.464Z,101159
2017-03-27T04:31:10.012Z,101161
2017-03-27T04:32:09.528Z,101163
2017-03-27T04:33:10.169Z,101159
2017-03-27T04:34:10.311Z,101157
2017-03-27T04:35:09.625Z,101164
2017-03-27T04:36:09.718Z,101167
2017-03-27T04:37:09.797Z,101166
2017-03-27T04:38:10.422Z,101170
2017-03-27T04:39:10.485Z,101160
2017-03-27T04:40:09.948Z,101165
2017-03-27T04:41:10.527Z,101160
2017-03-27T04:42:10.022Z,101163
2017-03-27T04:43:10.673Z,101162
2017-03-27T04:44:10.172Z,101159
2017-03-27T04:45:10.260Z,101163
2017-03-27T04:46:10.285Z,101163
2017-03-27T04:47:10.828Z,101165
2017-03-27T04:48:10.947Z,101162
2017-03-27T04:49:10.999Z,101165
2017-03-27T04:50:10.517Z,101167
2017-03-27T04:51:10.569Z,101159
2017-03-27T04:52:11.165Z,101162
2017-03-27T04:53:10.732Z,101162
2017-03-27T04:54:10.771Z,101165
2017-03-27T04:55:11.294Z,101170
2017-03-27T04:56:11.401Z,101166
2017-03-27T04:57:11.764Z,101171
2017-03-27T04:58:11.533Z,101169
2017-03-27T04:59:11.084Z,101172
2017-03-27T05:00:11.602Z,101169
2017-03-27T05:01:11.626Z,101172
2017-03-27T05:02:11.136Z,101171
2017-03-27T05:03:11.948Z,101172
2017-03-27T05:04:11.707Z,101171
2017-03-27T05:05:11.769Z,101175
2017-03-27T05:06:11.796Z,101179
2017-03-27T05:07:11.884Z,101180
2017-03-27T05:08:11.380Z,101178
2017-03-27T05:09:12.123Z,101180
2017-03-27T05:10:12.000Z,101182
2017-03-27T05:11:12.057Z,101180
2017-03-27T05:12:11.572Z,101172
2017-03-27T05:13:11.620Z,101180
2017-03-27T05:14:12.218Z,101172
2017-03-27T05:15:12.570Z,101180
2017-03-27T05:16:12.313Z,101184
2017-03-27T05:17:12.368Z,101181
2017-03-27T05:18:11.926Z,101183
2017-03-27T05:19:11.945Z,101183
2017-03-27T05:20:12.533Z,101189
2017-03-27T05:21:12.791Z,101183
2017-03-27T05:22:12.737Z,101180
2017-03-27T05:23:12.793Z,101191
2017-03-27T05:24:12.806Z,101183
2017-03-27T05:25:12.308Z,101188
2017-03-27T05:26:12.395Z,101191
2017-03-27T05:27:12.699Z,101191
2017-03-27T05:28:12.571Z,101187
2017-03-27T05:29:13.085Z,101191
2017-03-27T05:30:12.629Z,101193
2017-03-27T05:31:12.683Z,101189
2017-03-27T05:32:13.239Z,101195
2017-03-27T05:33:12.913Z,101197
2017-03-27T05:34:13.328Z,101197
2017-03-27T05:35:13.371Z,101196
2017-03-27T05:36:13.447Z,101195
2017-03-27T05:37:13.510Z,101197
2017-03-27T05:38:13.543Z,101188
2017-03-27T05:39:13.744Z,101192
2017-03-27T05:40:13.563Z,101190
2017-03-27T05:41:13.667Z,101193
2017-03-27T05:42:13.762Z,101203
2017-03-27T05:43:13.795Z,101200
2017-03-27T05:44:13.891Z,101204
2017-03-27T05:45:13.595Z,101204
2017-03-27T05:46:13.918Z,101205
2017-03-27T05:47:13.988Z,101199
2017-03-27T05:48:13.457Z,101214
2017-03-27T05:49:14.132Z,101214
2017-03-27T05:50:14.198Z,101202
2017-03-27T05:51:14.532Z,101211
2017-03-27T05:52:14.273Z,101216
2017-03-27T05:53:13.752Z,101216
2017-03-27T05:54:14.376Z,101219
2017-03-27T05:55:14.367Z,101210
2017-03-27T05:56:13.885Z,101214
2017-03-27T05:57:14.131Z,101218
2017-03-27T05:58:14.511Z,101213
2017-03-27T05:59:13.992Z,101218
2017-03-27T06:00:14.095Z,101216
2017-03-27T06:01:15.360Z,101215
2017-03-27T06:02:14.137Z,101215
2017-03-27T06:03:14.332Z,101216
2017-03-27T06:04:18.869Z,101222
2017-03-27T06:05:14.787Z,101220
2017-03-27T06:06:14.836Z,101224
2017-03-27T06:07:14.894Z,101218
2017-03-27T06:08:14.419Z,101223
2017-03-27T06:09:14.667Z,101225
2017-03-27T06:10:15.070Z,101220
2017-03-27T06:11:14.551Z,101228
2017-03-27T06:12:15.817Z,101228
2017-03-27T06:13:15.782Z,101218
2017-03-27T06:14:14.648Z,101224
2017-03-27T06:15:14.952Z,101225
2017-03-27T06:16:15.290Z,101228
2017-03-27T06:17:14.767Z,101227
2017-03-27T06:18:15.347Z,101223
2017-03-27T06:19:15.465Z,101220
2017-03-27T06:20:14.958Z,101227
2017-03-27T06:21:15.169Z,101229
2017-03-27T06:22:15.672Z,101229
2017-03-27T06:23:15.752Z,101230
2017-03-27T06:24:15.819Z,101232
2017-03-27T06:25:15.847Z,101231
2017-03-27T06:26:15.452Z,101233
2017-03-27T06:27:16.186Z,101232
2017-03-27T06:28:15.569Z,101229
2017-03-27T06:29:16.299Z,101230
2017-03-27T06:30:15.681Z,101223
2017-03-27T06:31:15.657Z,101225
2017-03-27T06:32:15.747Z,101226
2017-03-27T06:33:16.540Z,101226
2017-03-27T06:34:15.976Z,101228
2017-03-27T06:35:15.968Z,101230
2017-03-27T06:36:16.069Z,101231
2017-03-27T06:37:16.090Z,101237
2017-03-27T06:38:16.658Z,101236
2017-03-27T06:39:16.849Z,101233
2017-03-27T06:40:16.211Z,101229
2017-03-27T06:41:16.745Z,101235
2017-03-27T06:42:16.830Z,101235
2017-03-27T06:43:16.920Z,101234
2017-03-27T06:44:16.435Z,101229
2017-03-27T06:45:17.149Z,101231
2017-03-27T06:46:16.997Z,101233
2017-03-27T06:47:16.517Z,101228
2017-03-27T06:48:17.753Z,101240
2017-03-27T06:49:17.185Z,101240
2017-03-27T06:50:16.648Z,101236
2017-03-27T06:51:17.449Z,101238
2017-03-27T06:52:17.402Z,101236
2017-03-27T06:53:16.913Z,101243
2017-03-27T06:54:16.934Z,101237
2017-03-27T06:55:17.511Z,101239
2017-03-27T06:56:17.026Z,101242
2017-03-27T06:57:17.804Z,101236
2017-03-27T06:58:17.717Z,101235
2017-03-27T06:59:17.242Z,101235
2017-03-27T07:00:17.820Z,101238
2017-03-27T07:01:17.992Z,101231
2017-03-27T07:02:17.476Z,101237
2017-03-27T07:03:18.205Z,101235
2017-03-27T07:04:18.110Z,101241
2017-03-27T07:05:17.564Z,101233
2017-03-27T07:06:18.156Z,101238
2017-03-27T07:07:18.496Z,101240
2017-03-27T07:08:18.030Z,101243
2017-03-27T07:09:18.062Z,101239
2017-03-27T07:10:17.990Z,101234
2017-03-27T07:11:18.627Z,101236
2017-03-27T07:12:18.090Z,101242
2017-03-27T07:13:18.097Z,101244
2017-03-27T07:14:18.630Z,101245
2017-03-27T07:15:18.334Z,101246
2017-03-27T07:16:18.198Z,101247
2017-03-27T07:17:18.812Z,101240
2017-03-27T07:18:18.971Z,101237
2017-03-27T07:19:19.048Z,101245
2017-03-27T07:20:19.048Z,101242
2017-03-27T07:21:18.763Z,101240
2017-03-27T07:22:18.549Z,101240
2017-03-27T07:23:19.109Z,101229
2017-03-27T07:24:19.185Z,101232
2017-03-27T07:25:19.385Z,101238
2017-03-27T07:26:19.350Z,101238
2017-03-27T07:27:19.484Z,101234
2017-03-27T07:28:18.797Z,101233
2017-03-27T07:29:19.324Z,101228
2017-03-27T07:30:18.859Z,101231
2017-03-27T07:31:20.028Z,101236
2017-03-27T07:32:19.367Z,101233
2017-03-27T07:33:19.139Z,101235
2017-03-27T07:34:19.563Z,101226
2017-03-27T07:35:19.121Z,101234
2017-03-27T07:36:19.112Z,101240
2017-03-27T07:37:19.711Z,101239
2017-03-27T07:38:19.173Z,101233
2017-03-27T07:39:20.080Z,101235
2017-03-27T07:40:19.140Z,101236
2017-03-27T07:41:19.840Z,101235
2017-03-27T07:42:19.805Z,101225
2017-03-27T07:43:20.915Z,101236
2017-03-27T07:44:19.469Z,101237
2017-03-27T07:45:20.253Z,101236
2017-03-27T07:46:20.113Z,101240
2017-03-27T07:47:20.166Z,101235
2017-03-27T07:48:19.643Z,101241
2017-03-27T07:49:20.589Z,101243
2017-03-27T07:50:20.261Z,101244
2017-03-27T07:51:20.401Z,101241
2017-03-27T07:52:20.419Z,101235
2017-03-27T07:53:20.517Z,101238
2017-03-27T07:54:20.606Z,101233
2017-03-27T07:55:20.022Z,101239
2017-03-27T07:56:20.111Z,101240
2017-03-27T07:57:22.280Z,101241
2017-03-27T07:58:20.691Z,101230
2017-03-27T07:59:20.859Z,101243
2017-03-27T08:00:20.259Z,101238
2017-03-27T08:01:21.449Z,101230
2017-03-27T08:02:21.030Z,101234
2017-03-27T08:03:20.623Z,101231
2017-03-27T08:04:21.253Z,101228
2017-03-27T08:05:21.163Z,101234
2017-03-27T08:06:21.146Z,101231
2017-03-27T08:07:21.277Z,101248
2017-03-27T08:08:22.165Z,101238
2017-03-27T08:09:22.855Z,101235
2017-03-27T08:10:20.814Z,101232
2017-03-27T08:12:31.566Z,101231
2017-03-27T08:13:31.793Z,101233
2017-03-27T08:14:31.410Z,101229
2017-03-27T08:15:31.044Z,101234
2017-03-27T08:16:31.299Z,101230
2017-03-27T08:17:31.402Z,101223
2017-03-27T08:18:31.567Z,101228
2017-03-27T08:19:31.411Z,101227
2017-03-27T08:20:31.994Z,101228
2017-03-27T08:21:31.904Z,101229
2017-03-27T08:22:32.030Z,101230
2017-03-27T08:23:32.116Z,101228
2017-03-27T08:24:32.056Z,101227
2017-03-27T08:25:31.620Z,101236
2017-03-27T08:26:32.298Z,101230
2017-03-27T08:27:32.310Z,101231
2017-03-27T08:28:31.843Z,101230
2017-03-27T08:29:32.412Z,101223
2017-03-27T08:30:31.935Z,101227
2017-03-27T08:31:31.969Z,101237
2017-03-27T08:32:32.598Z,101234
2017-03-27T08:33:31.990Z,101230
2017-03-27T08:34:32.572Z,101230
2017-03-27T08:35:33.265Z,101234
2017-03-27T08:36:32.260Z,101232
2017-03-27T08:37:32.747Z,101234
2017-03-27T08:38:32.795Z,101230
2017-03-27T08:39:32.178Z,101229
2017-03-27T08:40:32.843Z,101224
2017-03-27T08:41:32.943Z,101234
2017-03-27T08:42:32.934Z,101227
2017-03-27T08:43:32.443Z,101233
2017-03-27T08:44:32.610Z,101229
2017-03-27T08:45:33.133Z,101233
2017-03-27T08:46:33.296Z,101234
2017-03-27T08:47:33.302Z,101235
2017-03-27T08:48:33.355Z,101236
2017-03-27T08:49:32.801Z,101237
2017-03-27T08:50:32.813Z,101238
2017-03-27T08:51:33.572Z,101230
2017-03-27T08:52:35.076Z,101231
2017-03-27T08:53:33.581Z,101236
2017-03-27T08:54:33.807Z,101227
2017-03-27T08:55:33.208Z,101234
2017-03-27T08:56:33.724Z,101234
2017-03-27T08:57:33.204Z,101232
2017-03-27T08:58:33.789Z,101233
2017-03-27T08:59:33.882Z,101238
2017-03-27T09:00:33.797Z,101229
2017-03-27T09:01:33.317Z,101229
2017-03-27T09:02:33.492Z,101234
2017-03-27T09:03:34.071Z,101232
2017-03-27T09:04:34.105Z,101230
2017-03-27T09:05:34.342Z,101230
2017-03-27T09:06:34.129Z,101231
2017-03-27T09:07:34.328Z,101224
2017-03-27T09:08:35.045Z,101221
2017-03-27T09:09:34.302Z,101228
2017-03-27T09:10:34.342Z,101225
2017-03-27T09:11:35.157Z,101228
2017-03-27T09:12:34.512Z,101221
2017-03-27T09:13:34.703Z,101228
2017-03-27T09:14:34.098Z,101228
2017-03-27T09:15:34.099Z,101225
2017-03-27T09:16:34.689Z,101234
2017-03-27T09:18:34.690Z,101234
2017-03-27T09:19:34.947Z,101238
2017-03-27T09:20:34.773Z,101227
2017-03-27T09:21:34.390Z,101231
2017-03-27T09:22:34.976Z,101233
2017-03-27T09:23:34.497Z,101238
2017-03-27T09:24:34.560Z,101242
2017-03-27T09:25:35.869Z,101240
2017-03-27T09:26:35.257Z,101245
2017-03-27T09:27:35.234Z,101241
2017-03-27T09:28:35.318Z,101236
2017-03-27T09:29:35.334Z,101242
2017-03-27T09:30:35.356Z,101241
2017-03-27T09:31:35.137Z,101241
2017-03-27T09:32:35.556Z,101233
2017-03-27T09:33:35.047Z,101245
2017-03-27T09:34:35.046Z,101244
2017-03-27T09:35:35.080Z,101240
2017-03-27T09:36:35.702Z,101238
2017-03-27T09:37:35.876Z,101231
2017-03-27T09:38:35.758Z,101239
2017-03-27T09:39:35.252Z,101236
2017-03-27T09:40:36.062Z,101237
2017-03-27T09:41:35.955Z,101231
2017-03-27T09:42:35.445Z,101232
2017-03-27T09:43:36.230Z,101235
2017-03-27T09:44:37.091Z,101232
2017-03-27T09:45:35.516Z,101236
2017-03-27T09:46:36.613Z,101233
2017-03-27T09:47:36.297Z,101230
2017-03-27T09:48:35.643Z,101217
2017-03-27T09:49:35.873Z,101227
2017-03-27T09:50:35.785Z,101224
2017-03-27T09:51:36.578Z,101221
2017-03-27T09:52:36.466Z,101225
2017-03-27T09:53:36.905Z,101224
2017-03-27T09:54:36.468Z,101219
2017-03-27T09:55:36.276Z,101229
2017-03-27T09:56:36.038Z,101227
2017-03-27T09:57:36.128Z,101234
2017-03-27T09:58:36.700Z,101229
2017-03-27T09:59:36.739Z,101228
2017-03-27T10:00:36.739Z,101216
2017-03-27T10:01:36.537Z,101221
2017-03-27T10:02:36.914Z,101216
2017-03-27T10:03:37.555Z,101221
2017-03-27T10:04:36.974Z,101214
2017-03-27T10:05:37.055Z,101221
2017-03-27T10:06:36.612Z,101218
2017-03-27T10:07:36.875Z,101221
2017-03-27T10:08:36.643Z,101219
2017-03-27T10:09:37.161Z,101220
2017-03-27T10:10:37.354Z,101224
2017-03-27T10:11:38.260Z,101223
2017-03-27T10:12:37.422Z,101226
2017-03-27T10:13:37.044Z,101222
2017-03-27T10:14:36.943Z,101217
2017-03-27T10:15:36.914Z,101216
2017-03-27T10:16:37.207Z,101219
2017-03-27T10:17:37.781Z,101220
2017-03-27T10:18:37.636Z,101211
2017-03-27T10:19:37.930Z,101229
2017-03-27T10:20:38.557Z,101220
2017-03-27T10:21:38.042Z,101224
2017-03-27T10:22:37.954Z,101222
2017-03-27T10:23:38.011Z,101211
2017-03-27T10:24:37.548Z,101216
2017-03-27T10:25:37.664Z,101210
2017-03-27T10:26:37.541Z,101212
2017-03-27T10:27:37.595Z,101211
2017-03-27T10:28:37.581Z,101199
2017-03-27T10:29:37.634Z,101211
2017-03-27T10:30:38.901Z,101214
2017-03-27T10:31:38.442Z,101214
2017-03-27T10:32:38.328Z,101208
2017-03-27T10:33:37.828Z,101214
2017-03-27T10:34:38.361Z,101209
2017-03-27T10:35:37.876Z,101212
2017-03-27T10:36:38.130Z,101209
2017-03-27T10:37:38.549Z,101207
2017-03-27T10:38:38.697Z,101208
2017-03-27T10:39:38.657Z,101206
2017-03-27T10:40:38.201Z,101200
2017-03-27T10:41:38.177Z,101198
2017-03-27T10:42:38.380Z,101201
2017-03-27T10:43:38.193Z,101201
2017-03-27T10:44:38.179Z,101198
2017-03-27T10:45:38.764Z,101200
2017-03-27T10:46:38.791Z,101199
2017-03-27T10:47:38.388Z,101200
2017-03-27T10:48:38.604Z,101198
2017-03-27T10:49:38.915Z,101189
2017-03-27T10:50:38.428Z,101196
2017-03-27T10:51:38.437Z,101197
2017-03-27T10:52:38.499Z,101193
2017-03-27T10:53:38.551Z,101190
2017-03-27T10:54:38.784Z,101190
2017-03-27T10:55:39.723Z,101187
2017-03-27T10:56:39.227Z,101185
2017-03-27T10:57:38.785Z,101177
2017-03-27T10:58:38.828Z,101184
2017-03-27T10:59:38.802Z,101188
2017-03-27T11:00:39.548Z,101182
2017-03-27T11:01:38.873Z,101180
2017-03-27T11:02:39.550Z,101178
2017-03-27T11:03:39.533Z,101175
2017-03-27T11:04:39.608Z,101174
2017-03-27T11:05:39.724Z,101177
2017-03-27T11:06:39.828Z,101176
2017-03-27T11:07:39.712Z,101176
2017-03-27T11:08:39.324Z,101171
2017-03-27T11:09:39.375Z,101174
2017-03-27T11:10:39.809Z,101172
2017-03-27T11:11:39.359Z,101169
2017-03-27T11:12:40.943Z,101169
2017-03-27T11:13:39.529Z,101162
2017-03-27T11:14:39.552Z,101164
2017-03-27T11:15:40.087Z,101162
2017-03-27T11:16:39.616Z,101164
2017-03-27T11:17:39.729Z,101165
2017-03-27T11:18:39.825Z,101159
2017-03-27T11:19:39.816Z,101161
2017-03-27T11:20:40.379Z,101150
2017-03-27T11:21:40.345Z,101160
2017-03-27T11:22:40.456Z,101159
2017-03-27T11:23:40.737Z,101156
2017-03-27T11:24:39.970Z,101156
2017-03-27T11:25:40.064Z,101151
2017-03-27T11:26:40.634Z,101143
2017-03-27T11:27:40.783Z,101151
2017-03-27T11:28:40.230Z,101151
2017-03-27T11:29:40.950Z,101155
2017-03-27T11:30:40.346Z,101153
2017-03-27T11:31:40.344Z,101145
2017-03-27T11:32:40.406Z,101152
2017-03-27T11:33:40.436Z,101152
2017-03-27T11:34:40.464Z,101149
2017-03-27T11:35:41.241Z,101154
2017-03-27T11:36:41.695Z,101154
2017-03-27T11:37:41.119Z,101156
2017-03-27T11:38:44.008Z,101153
2017-03-27T11:39:40.654Z,101153
2017-03-27T11:40:41.334Z,101153
2017-03-27T11:41:41.565Z,101145
2017-03-27T11:42:41.398Z,101149
2017-03-27T11:43:41.094Z,101150
2017-03-27T11:44:41.802Z,101147
2017-03-27T11:45:42.213Z,101145
2017-03-27T11:46:41.731Z,101103
2017-03-27T11:47:42.530Z,101143
2017-03-27T11:48:42.001Z,101143
2017-03-27T11:49:42.155Z,101139
2017-03-27T11:50:43.272Z,101139
2017-03-27T11:52:42.314Z,101134
2017-03-27T11:53:42.437Z,101132
2017-03-27T11:54:41.925Z,101123
2017-03-27T11:55:41.475Z,101130
2017-03-27T11:56:42.177Z,101128
2017-03-27T11:57:42.890Z,101129
2017-03-27T11:58:41.999Z,101132
2017-03-27T11:59:42.560Z,101133
2017-03-27T12:00:42.374Z,101129
2017-03-27T12:01:42.324Z,101123
2017-03-27T12:03:42.872Z,101125
2017-03-27T12:04:41.978Z,101123
2017-03-27T12:05:42.914Z,101126
2017-03-27T12:06:43.411Z,101117
2017-03-27T12:07:42.722Z,101123
2017-03-27T12:08:43.485Z,101121
2017-03-27T12:09:42.897Z,101125
2017-03-27T12:10:43.747Z,101118
2017-03-27T12:11:42.778Z,101116
2017-03-27T12:12:42.633Z,101111
2017-03-27T12:13:43.061Z,101111
2017-03-27T12:14:43.205Z,101110
2017-03-27T12:15:43.471Z,101114
2017-03-27T12:16:42.633Z,101110
2017-03-27T12:17:43.374Z,101110
2017-03-27T12:18:42.733Z,101108
2017-03-27T12:19:43.431Z,101104
2017-03-27T12:20:42.862Z,101096
2017-03-27T12:22:43.435Z,101097
2017-03-27T12:23:43.726Z,101090
2017-03-27T12:24:43.090Z,101095
2017-03-27T12:25:43.659Z,101092
2017-03-27T12:26:43.756Z,101096
2017-03-27T12:27:43.783Z,101096
2017-03-27T12:28:43.161Z,101091
2017-03-27T12:29:43.913Z,101089
2017-03-27T12:30:43.809Z,101089
2017-03-27T12:31:43.405Z,101085
2017-03-27T12:32:44.184Z,101087
2017-03-27T12:33:43.749Z,101084
2017-03-27T12:34:44.432Z,101086